Strona główna
METAR-TAF:

METAR-TAF

Lotnisko :

Port lotniczy Bluefields

Bluefields, Nikaragua

Szerokość geograficzna: 12-00N, Długość geograficzna: 083-46W, wysokość: 5 m

Aktualna obserwacja pogody

Raport powstał 59 minut temu, godzina 21:00 UTC
Wiatr 4 kt od wschodnio-południowy wschód
Temperatura 29°C
Wilgotność 70%
Ciśnienie 1011 hPa
Widzialność 10 km lub więcej
Mało chmury na wysokości 2500 ft

METAR: MNBL 292100Z 11004KT 9999 FEW025 29/23 Q1011

czas: 15:59 (21:59 UTC)

Prognoza

Raport powstał 6 godziny i 59 minut temu, godzina 15:00 UTC
Prognoza ważna od 29 godzina 18 UTC do 30 godzina 18 UTC
Wiatr 8 kt od wschodnio-południowy wschód
Widzialność 10 km lub więcej
Mało chmury na wysokości 2500 ft
Stopniowe zmiany
od 30 godzina 01 UTC do 30 godzina 04 UTC
Wiatr 4 kt od wschód
Przejściowo
od 30 godzina 10 UTC do 30 godzina 15 UTC
Wiatr 6 kt od północ
Widzialność 10 km lub więcej
Mało chmury na wysokości 2200 ft

TAF: MNBL 291500Z 2918/3018 11008KT 9999 FEW025 BECMG 3001/3004 08004KT TEMPO 3010/3015 36006KT 9999 FEW022

Obserwacja i prognoza pogody dla ponad 4000 lotnisk (raport METAR i TAF).

Dostępne stacje oznaczono żółtymi i czerwonymi punktami na mapie.

Najedź kursorem aby zobaczyć nazwę stacji.

Kliknij aby zobaczyć obserwacje i prognozy pogody.

Aby zmienić mapę: kliknij na zielony przycisk z czarnym krzyżykiem, aby powiększyć; na zielony przycisk z myślnikiem, aby pomniejszyć; na zielone strzałki, aby przejść do map sąsiednich.


METAR-TAF: